createdAt,value
2022-11-06T00:00:48.558Z,1001.06
2022-11-06T00:01:48.590Z,1001.08
2022-11-06T00:02:48.645Z,1001.05
2022-11-06T00:03:48.558Z,1001.04
2022-11-06T00:04:48.534Z,1001.09
2022-11-06T00:05:48.539Z,1001.08
2022-11-06T00:06:48.527Z,1001.11
2022-11-06T00:07:48.519Z,1001.09
2022-11-06T00:08:48.514Z,1001.12
2022-11-06T00:09:48.518Z,1001.11
2022-11-06T00:10:48.499Z,1001.06
2022-11-06T00:11:48.507Z,1001.06
2022-11-06T00:12:48.492Z,1001.06
2022-11-06T00:13:48.482Z,1001.06
2022-11-06T00:14:48.517Z,1001.08
2022-11-06T00:15:48.470Z,1000.96
2022-11-06T00:16:48.462Z,1000.99
2022-11-06T00:17:48.523Z,1000.94
2022-11-06T00:18:48.449Z,1000.94
2022-11-06T00:19:48.461Z,1000.89
2022-11-06T00:20:48.457Z,1000.99
2022-11-06T00:21:48.443Z,1000.96
2022-11-06T00:22:49.271Z,1000.91
2022-11-06T00:23:48.433Z,1000.90
2022-11-06T00:24:48.435Z,1000.90
2022-11-06T00:25:48.401Z,1000.90
2022-11-06T00:26:54.015Z,1000.91
2022-11-06T00:27:50.394Z,1000.86
2022-11-06T00:28:48.387Z,1000.86
2022-11-06T00:29:48.413Z,1000.86
2022-11-06T00:30:48.376Z,1000.82
2022-11-06T00:31:48.366Z,1000.82
2022-11-06T00:32:48.393Z,1000.87
2022-11-06T00:33:48.413Z,1000.87
2022-11-06T00:34:48.349Z,1000.82
2022-11-06T00:35:48.386Z,1000.83
2022-11-06T00:36:48.341Z,1000.86
2022-11-06T00:37:48.429Z,1000.84
2022-11-06T00:38:48.345Z,1000.80
2022-11-06T00:39:48.315Z,1000.83
2022-11-06T00:40:48.335Z,1000.82
2022-11-06T00:41:48.313Z,1000.82
2022-11-06T00:42:48.327Z,1000.81
2022-11-06T00:43:48.329Z,1000.80
2022-11-06T00:44:48.282Z,1000.84
2022-11-06T00:45:48.290Z,1000.82
2022-11-06T00:46:48.300Z,1000.85
2022-11-06T00:47:48.837Z,1000.82
2022-11-06T00:48:48.282Z,1000.81
2022-11-06T00:49:48.265Z,1000.84
2022-11-06T00:50:52.383Z,1000.88
2022-11-06T00:52:20.199Z,1000.84
2022-11-06T00:52:48.248Z,1000.91
2022-11-06T00:53:48.262Z,1000.84
2022-11-06T00:54:48.233Z,1000.86
2022-11-06T00:55:48.226Z,1000.91
2022-11-06T00:56:48.223Z,1000.86
2022-11-06T00:57:48.217Z,1000.83
2022-11-06T00:58:48.220Z,1000.81
2022-11-06T00:59:48.233Z,1000.84
2022-11-06T01:00:48.225Z,1000.89
2022-11-06T01:01:48.325Z,1000.85
2022-11-06T01:02:48.369Z,1000.81
2022-11-06T01:03:48.187Z,1000.78
2022-11-06T01:04:48.184Z,1000.69
2022-11-06T01:05:48.183Z,1000.72
2022-11-06T01:06:48.183Z,1000.74
2022-11-06T01:07:48.183Z,1000.72
2022-11-06T01:08:48.180Z,1000.70
2022-11-06T01:09:48.168Z,1000.67
2022-11-06T01:10:48.140Z,1000.67
2022-11-06T01:12:50.126Z,1000.64
2022-11-06T01:13:48.141Z,1000.62
2022-11-06T01:14:48.126Z,1000.65
2022-11-06T01:15:48.136Z,1000.59
2022-11-06T01:16:48.124Z,1000.64
2022-11-06T01:17:48.109Z,1000.67
2022-11-06T01:18:48.103Z,1000.63
2022-11-06T01:19:48.239Z,1000.64
2022-11-06T01:20:48.080Z,1000.65
2022-11-06T01:21:48.096Z,1000.70
2022-11-06T01:22:48.074Z,1000.70
2022-11-06T01:23:48.060Z,1000.70
2022-11-06T01:24:48.259Z,1000.66
2022-11-06T01:25:48.056Z,1000.74
2022-11-06T01:27:11.968Z,1000.72
2022-11-06T01:27:50.055Z,1000.71
2022-11-06T01:28:48.034Z,1000.83
2022-11-06T01:29:48.057Z,1000.73
2022-11-06T01:30:48.022Z,1000.77
2022-11-06T01:31:48.022Z,1000.72
2022-11-06T01:32:48.022Z,1000.71
2022-11-06T01:33:48.006Z,1000.75
2022-11-06T01:34:48.029Z,1000.74
2022-11-06T01:35:48.985Z,1000.78
2022-11-06T01:36:47.996Z,1000.79
2022-11-06T01:37:47.977Z,1000.72
2022-11-06T01:38:47.973Z,1000.65
2022-11-06T01:39:47.969Z,1000.68
2022-11-06T01:40:47.973Z,1000.70
2022-11-06T01:41:47.959Z,1000.65
2022-11-06T01:42:47.977Z,1000.65
2022-11-06T01:43:47.937Z,1000.60
2022-11-06T01:44:47.929Z,1000.60
2022-11-06T01:45:47.954Z,1000.65
2022-11-06T01:46:47.935Z,1000.60
2022-11-06T01:47:47.921Z,1000.56
2022-11-06T01:48:47.945Z,1000.57
2022-11-06T01:49:47.921Z,1000.55
2022-11-06T01:50:47.989Z,1000.58
2022-11-06T01:51:47.906Z,1000.59
2022-11-06T01:52:47.897Z,1000.65
2022-11-06T01:53:47.895Z,1000.53
2022-11-06T01:54:47.885Z,1000.55
2022-11-06T01:55:47.901Z,1000.58
2022-11-06T01:56:47.878Z,1000.61
2022-11-06T01:57:47.878Z,1000.63
2022-11-06T01:58:47.865Z,1000.68
2022-11-06T01:59:47.882Z,1000.70
2022-11-06T02:00:47.866Z,1000.59
2022-11-06T02:01:47.900Z,1000.56
2022-11-06T02:02:48.008Z,1000.67
2022-11-06T02:03:47.835Z,1000.57
2022-11-06T02:04:47.816Z,1000.55
2022-11-06T02:05:47.830Z,1000.57
2022-11-06T02:06:47.822Z,1000.62
2022-11-06T02:07:47.814Z,1000.63
2022-11-06T02:08:47.799Z,1000.63
2022-11-06T02:09:47.802Z,1000.67
2022-11-06T02:10:47.778Z,1000.66
2022-11-06T02:11:47.943Z,1000.68
2022-11-06T02:12:47.778Z,1000.68
2022-11-06T02:13:47.917Z,1000.70
2022-11-06T02:14:47.774Z,1000.67
2022-11-06T02:15:47.761Z,1000.65
2022-11-06T02:16:47.794Z,1000.63
2022-11-06T02:17:47.772Z,1000.70
2022-11-06T02:18:47.766Z,1000.67
2022-11-06T02:19:47.737Z,1000.73
2022-11-06T02:20:47.746Z,1000.67
2022-11-06T02:21:47.717Z,1000.67
2022-11-06T02:22:48.720Z,1000.71
2022-11-06T02:23:47.729Z,1000.67
2022-11-06T02:24:47.715Z,1000.68
2022-11-06T02:25:48.690Z,1000.60
2022-11-06T02:26:47.697Z,1000.58
2022-11-06T02:27:47.698Z,1000.53
2022-11-06T02:28:47.694Z,1000.55
2022-11-06T02:29:47.676Z,1000.56
2022-11-06T02:30:48.672Z,1000.53
2022-11-06T02:31:47.688Z,1000.56
2022-11-06T02:32:47.698Z,1000.50
2022-11-06T02:33:50.307Z,1000.53
2022-11-06T02:34:47.644Z,1000.53
2022-11-06T02:35:47.663Z,1000.51
2022-11-06T02:36:48.286Z,1000.52
2022-11-06T02:37:47.645Z,1000.58
2022-11-06T02:38:47.654Z,1000.50
2022-11-06T02:39:48.719Z,1000.46
2022-11-06T02:40:47.647Z,1000.42
2022-11-06T02:41:47.608Z,1000.43
2022-11-06T02:42:47.599Z,1000.43
2022-11-06T02:43:47.615Z,1000.40
2022-11-06T02:44:47.612Z,1000.40
2022-11-06T02:45:47.595Z,1000.41
2022-11-06T02:46:47.585Z,1000.42
2022-11-06T02:47:47.566Z,1000.40
2022-11-06T02:48:47.560Z,1000.43
2022-11-06T02:49:47.563Z,1000.41
2022-11-06T02:50:47.560Z,1000.37
2022-11-06T02:51:47.566Z,1000.35
2022-11-06T02:52:47.542Z,1000.42
2022-11-06T02:53:47.539Z,1000.35
2022-11-06T02:54:47.512Z,1000.39
2022-11-06T02:55:47.527Z,1000.39
2022-11-06T02:56:47.518Z,1000.34
2022-11-06T02:57:47.524Z,1000.35
2022-11-06T02:58:49.167Z,1000.36
2022-11-06T02:59:48.496Z,1000.35
2022-11-06T03:00:47.534Z,1000.28
2022-11-06T03:01:47.583Z,1000.30
2022-11-06T03:02:47.698Z,1000.29
2022-11-06T03:03:47.548Z,1000.36
2022-11-06T03:04:47.459Z,1000.35
2022-11-06T03:05:47.481Z,1000.30
2022-11-06T03:06:47.456Z,1000.30
2022-11-06T03:07:47.445Z,1000.22
2022-11-06T03:08:47.441Z,1000.30
2022-11-06T03:09:47.452Z,1000.29
2022-11-06T03:10:47.458Z,1000.33
2022-11-06T03:11:47.424Z,1000.30
2022-11-06T03:12:47.424Z,1000.33
2022-11-06T03:13:47.430Z,1000.28
2022-11-06T03:14:47.415Z,1000.26
2022-11-06T03:15:47.415Z,1000.28
2022-11-06T03:16:47.425Z,1000.28
2022-11-06T03:17:47.400Z,1000.27
2022-11-06T03:18:47.412Z,1000.24
2022-11-06T03:19:47.376Z,1000.28
2022-11-06T03:20:47.376Z,1000.28
2022-11-06T03:21:47.391Z,1000.32
2022-11-06T03:22:47.368Z,1000.29
2022-11-06T03:23:47.376Z,1000.27
2022-11-06T03:24:47.348Z,1000.38
2022-11-06T03:25:47.349Z,1000.33
2022-11-06T03:26:47.355Z,1000.29
2022-11-06T03:27:47.348Z,1000.40
2022-11-06T03:28:47.325Z,1000.40
2022-11-06T03:29:47.315Z,1000.30
2022-11-06T03:30:47.319Z,1000.35
2022-11-06T03:31:47.297Z,1000.31
2022-11-06T03:32:47.324Z,1000.28
2022-11-06T03:33:47.308Z,1000.29
2022-11-06T03:34:47.293Z,1000.32
2022-11-06T03:35:47.281Z,1000.30
2022-11-06T03:36:47.289Z,1000.31
2022-11-06T03:37:47.289Z,1000.27
2022-11-06T03:38:47.261Z,1000.28
2022-11-06T03:39:47.256Z,1000.27
2022-11-06T03:40:47.241Z,1000.26
2022-11-06T03:41:48.254Z,1000.28
2022-11-06T03:42:47.265Z,1000.23
2022-11-06T03:43:47.256Z,1000.23
2022-11-06T03:44:47.224Z,1000.22
2022-11-06T03:45:47.218Z,1000.26
2022-11-06T03:46:47.246Z,1000.16
2022-11-06T03:47:47.224Z,1000.14
2022-11-06T03:48:47.226Z,1000.12
2022-11-06T03:49:47.219Z,1000.13
2022-11-06T03:50:47.201Z,1000.04
2022-11-06T03:51:47.184Z,1000.11
2022-11-06T03:52:47.193Z,1000.04
2022-11-06T03:53:47.193Z,1000.11
2022-11-06T03:54:47.184Z,1000.10
2022-11-06T03:55:47.160Z,1000.06
2022-11-06T03:56:47.164Z,1000.04
2022-11-06T03:57:47.169Z,1000.09
2022-11-06T03:58:47.245Z,1000.04
2022-11-06T03:59:47.138Z,1000.11
2022-11-06T04:00:47.150Z,1000.08
2022-11-06T04:01:47.223Z,1000.10
2022-11-06T04:02:47.264Z,1000.07
2022-11-06T04:03:47.129Z,1000.17
2022-11-06T04:04:47.113Z,1000.14
2022-11-06T04:05:47.117Z,1000.22
2022-11-06T04:06:47.101Z,1000.21
2022-11-06T04:07:47.100Z,1000.22
2022-11-06T04:08:47.097Z,1000.26
2022-11-06T04:09:47.085Z,1000.21
2022-11-06T04:10:47.073Z,1000.27
2022-11-06T04:11:47.085Z,1000.28
2022-11-06T04:12:47.084Z,1000.35
2022-11-06T04:13:47.067Z,1000.34
2022-11-06T04:14:48.099Z,1000.29
2022-11-06T04:15:47.058Z,1000.38
2022-11-06T04:16:47.036Z,1000.34
2022-11-06T04:17:47.033Z,1000.33
2022-11-06T04:18:47.037Z,1000.35
2022-11-06T04:19:47.032Z,1000.37
2022-11-06T04:20:47.028Z,1000.35
2022-11-06T04:21:47.025Z,1000.36
2022-11-06T04:22:47.027Z,1000.43
2022-11-06T04:23:47.013Z,1000.35
2022-11-06T04:24:47.045Z,1000.41
2022-11-06T04:25:46.994Z,1000.39
2022-11-06T04:26:47.005Z,1000.35
2022-11-06T04:27:46.985Z,1000.38
2022-11-06T04:28:46.990Z,1000.39
2022-11-06T04:29:47.000Z,1000.36
2022-11-06T04:30:46.961Z,1000.28
2022-11-06T04:31:46.954Z,1000.32
2022-11-06T04:32:46.957Z,1000.33
2022-11-06T04:33:46.933Z,1000.31
2022-11-06T04:34:46.953Z,1000.31
2022-11-06T04:35:46.941Z,1000.35
2022-11-06T04:36:46.915Z,1000.34
2022-11-06T04:37:47.921Z,1000.30
2022-11-06T04:38:46.933Z,1000.33
2022-11-06T04:39:46.937Z,1000.29
2022-11-06T04:40:46.913Z,1000.30
2022-11-06T04:41:46.903Z,1000.33
2022-11-06T04:42:46.910Z,1000.36
2022-11-06T04:43:46.882Z,1000.28
2022-11-06T04:44:46.889Z,1000.28
2022-11-06T04:45:46.888Z,1000.31
2022-11-06T04:46:46.876Z,1000.21
2022-11-06T04:47:46.863Z,1000.24
2022-11-06T04:48:46.856Z,1000.21
2022-11-06T04:49:46.872Z,1000.23
2022-11-06T04:50:46.849Z,1000.21
2022-11-06T04:51:46.853Z,1000.14
2022-11-06T04:52:46.828Z,1000.18
2022-11-06T04:53:47.915Z,1000.14
2022-11-06T04:54:46.854Z,1000.07
2022-11-06T04:55:46.823Z,1000.06
2022-11-06T04:56:46.905Z,999.99
2022-11-06T04:57:46.809Z,999.98
2022-11-06T04:58:46.802Z,999.93
2022-11-06T04:59:46.822Z,999.94
2022-11-06T05:00:46.860Z,999.93
2022-11-06T05:01:47.976Z,999.85
2022-11-06T05:02:46.771Z,999.84
2022-11-06T05:03:46.762Z,999.74
2022-11-06T05:04:46.787Z,999.84
2022-11-06T05:05:46.771Z,999.84
2022-11-06T05:06:46.749Z,999.83
2022-11-06T05:07:46.755Z,999.86
2022-11-06T05:08:46.735Z,999.87
2022-11-06T05:09:46.725Z,999.83
2022-11-06T05:10:46.728Z,999.82
2022-11-06T05:11:46.717Z,999.83
2022-11-06T05:12:46.702Z,999.93
2022-11-06T05:13:46.705Z,999.90
2022-11-06T05:14:46.700Z,999.88
2022-11-06T05:15:46.712Z,999.83
2022-11-06T05:16:46.683Z,999.85
2022-11-06T05:17:46.696Z,999.89
2022-11-06T05:18:46.658Z,999.84
2022-11-06T05:19:46.662Z,999.87
2022-11-06T05:20:46.657Z,999.87
2022-11-06T05:21:46.691Z,999.90
2022-11-06T05:22:46.652Z,999.90
2022-11-06T05:23:46.656Z,999.94
2022-11-06T05:24:46.635Z,999.89
2022-11-06T05:25:46.630Z,999.96
2022-11-06T05:26:46.680Z,999.84
2022-11-06T05:27:46.621Z,999.87
2022-11-06T05:28:46.619Z,999.86
2022-11-06T05:29:46.602Z,999.81
2022-11-06T05:30:46.595Z,999.84
2022-11-06T05:31:46.751Z,999.87
2022-11-06T05:32:46.601Z,999.87
2022-11-06T05:33:46.599Z,999.84
2022-11-06T05:34:46.564Z,999.87
2022-11-06T05:35:46.563Z,999.90
2022-11-06T05:36:46.756Z,999.91
2022-11-06T05:37:46.543Z,999.91
2022-11-06T05:38:46.542Z,999.95
2022-11-06T05:39:46.540Z,999.94
2022-11-06T05:40:46.544Z,999.99
2022-11-06T05:41:46.621Z,999.98
2022-11-06T05:42:46.533Z,999.89
2022-11-06T05:43:46.510Z,999.88
2022-11-06T05:44:46.517Z,999.91
2022-11-06T05:45:46.506Z,999.94
2022-11-06T05:46:49.343Z,999.94
2022-11-06T05:47:47.480Z,999.96
2022-11-06T05:48:46.487Z,999.97
2022-11-06T05:49:46.484Z,999.94
2022-11-06T05:50:46.500Z,999.97
2022-11-06T05:51:46.489Z,999.94
2022-11-06T05:52:46.514Z,999.96
2022-11-06T05:53:46.451Z,999.92
2022-11-06T05:54:46.442Z,999.85
2022-11-06T05:55:46.445Z,999.89
2022-11-06T05:56:46.447Z,999.89
2022-11-06T05:57:46.438Z,999.84
2022-11-06T05:58:46.425Z,999.82
2022-11-06T05:59:46.427Z,999.84
2022-11-06T06:00:46.427Z,999.80
2022-11-06T06:01:46.506Z,999.81
2022-11-06T06:02:46.604Z,999.80
2022-11-06T06:03:46.396Z,999.82
2022-11-06T06:04:46.384Z,999.85
2022-11-06T06:05:46.387Z,999.82
2022-11-06T06:06:46.374Z,999.82
2022-11-06T06:07:46.394Z,999.82
2022-11-06T06:08:46.364Z,999.85
2022-11-06T06:09:46.364Z,999.89
2022-11-06T06:10:46.357Z,999.79
2022-11-06T06:11:46.340Z,999.80
2022-11-06T06:12:46.353Z,999.82
2022-11-06T06:13:46.374Z,999.85
2022-11-06T06:14:50.218Z,999.77
2022-11-06T06:15:47.324Z,999.85
2022-11-06T06:16:46.306Z,999.79
2022-11-06T06:17:46.302Z,999.86
2022-11-06T06:18:46.322Z,999.82
2022-11-06T06:19:46.288Z,999.82
2022-11-06T06:20:46.312Z,999.86
2022-11-06T06:21:46.343Z,999.79
2022-11-06T06:22:46.308Z,999.81
2022-11-06T06:23:46.279Z,999.80
2022-11-06T06:24:46.295Z,999.78
2022-11-06T06:25:46.307Z,999.70
2022-11-06T06:26:46.271Z,999.79
2022-11-06T06:27:46.247Z,999.74
2022-11-06T06:28:46.282Z,999.72
2022-11-06T06:29:46.249Z,999.67
2022-11-06T06:30:46.241Z,999.67
2022-11-06T06:31:46.235Z,999.70
2022-11-06T06:32:46.255Z,999.69
2022-11-06T06:33:46.237Z,999.64
2022-11-06T06:34:47.203Z,999.66
2022-11-06T06:35:46.207Z,999.68
2022-11-06T06:36:46.211Z,999.62
2022-11-06T06:37:46.176Z,999.62
2022-11-06T06:38:46.228Z,999.62
2022-11-06T06:39:46.163Z,999.55
2022-11-06T06:40:46.181Z,999.53
2022-11-06T06:41:46.172Z,999.53
2022-11-06T06:42:46.162Z,999.53
2022-11-06T06:43:46.145Z,999.52
2022-11-06T06:44:46.163Z,999.50
2022-11-06T06:45:46.166Z,999.48
2022-11-06T06:46:46.149Z,999.52
2022-11-06T06:47:46.135Z,999.48
2022-11-06T06:48:46.117Z,999.55
2022-11-06T06:49:46.131Z,999.53
2022-11-06T06:50:46.116Z,999.56
2022-11-06T06:52:21.633Z,999.58
2022-11-06T06:52:46.098Z,999.52
2022-11-06T06:53:46.082Z,999.57
2022-11-06T06:54:46.114Z,999.58
2022-11-06T06:55:46.084Z,999.51
2022-11-06T06:56:46.079Z,999.53
2022-11-06T06:57:46.051Z,999.52
2022-11-06T06:58:46.058Z,999.52
2022-11-06T06:59:46.056Z,999.54
2022-11-06T07:00:46.112Z,999.53
2022-11-06T07:01:46.169Z,999.50
2022-11-06T07:02:46.035Z,999.53
2022-11-06T07:03:46.019Z,999.55
2022-11-06T07:04:46.030Z,999.58
2022-11-06T07:05:46.015Z,999.54
2022-11-06T07:06:46.019Z,999.53
2022-11-06T07:07:46.008Z,999.50
2022-11-06T07:08:45.999Z,999.53
2022-11-06T07:09:45.999Z,999.53
2022-11-06T07:10:45.970Z,999.54
2022-11-06T07:11:46.160Z,999.48
2022-11-06T07:12:45.967Z,999.44
2022-11-06T07:13:45.962Z,999.44
2022-11-06T07:14:45.971Z,999.42
2022-11-06T07:15:45.951Z,999.41
2022-11-06T07:16:51.062Z,999.51
2022-11-06T07:17:48.130Z,999.39
2022-11-06T07:18:45.932Z,999.43
2022-11-06T07:19:45.927Z,999.44
2022-11-06T07:20:45.940Z,999.40
2022-11-06T07:21:45.931Z,999.38
2022-11-06T07:22:45.935Z,999.39
2022-11-06T07:23:45.920Z,999.37
2022-11-06T07:24:45.899Z,999.36
2022-11-06T07:25:45.892Z,999.36
2022-11-06T07:26:45.950Z,999.28
2022-11-06T07:27:45.878Z,999.38
2022-11-06T07:28:45.866Z,999.39
2022-11-06T07:29:45.871Z,999.36
2022-11-06T07:30:45.858Z,999.36
2022-11-06T07:31:45.863Z,999.36
2022-11-06T07:32:45.855Z,999.36
2022-11-06T07:33:45.855Z,999.33
2022-11-06T07:34:45.834Z,999.28
2022-11-06T07:35:45.818Z,999.31
2022-11-06T07:36:46.790Z,999.31
2022-11-06T07:37:45.890Z,999.35
2022-11-06T07:38:45.834Z,999.16
2022-11-06T07:39:45.819Z,999.26
2022-11-06T07:40:45.803Z,999.25
2022-11-06T07:41:45.852Z,999.29
2022-11-06T07:42:45.785Z,999.22
2022-11-06T07:43:45.774Z,999.30
2022-11-06T07:44:45.810Z,999.21
2022-11-06T07:45:45.772Z,999.31
2022-11-06T07:46:45.794Z,999.30
2022-11-06T07:47:45.770Z,999.28
2022-11-06T07:48:46.682Z,999.23
2022-11-06T07:49:50.736Z,999.30
2022-11-06T07:50:47.762Z,999.20
2022-11-06T07:51:45.737Z,999.31
2022-11-06T07:52:45.743Z,999.30
2022-11-06T07:53:45.753Z,999.29
2022-11-06T07:54:45.710Z,999.28
2022-11-06T07:55:45.714Z,999.23
2022-11-06T07:56:45.750Z,999.31
2022-11-06T07:57:45.765Z,999.29
2022-11-06T07:58:45.708Z,999.28
2022-11-06T07:59:45.794Z,999.23
2022-11-06T08:00:45.722Z,999.23
2022-11-06T08:01:45.878Z,999.30
2022-11-06T08:02:45.686Z,999.18
2022-11-06T08:03:45.686Z,999.22
2022-11-06T08:04:45.703Z,999.23
2022-11-06T08:05:45.669Z,999.21
2022-11-06T08:06:45.647Z,999.26
2022-11-06T08:07:45.657Z,999.27
2022-11-06T08:08:45.670Z,999.24
2022-11-06T08:09:45.682Z,999.43
2022-11-06T08:10:45.637Z,999.35
2022-11-06T08:11:45.679Z,999.34
2022-11-06T08:12:45.624Z,999.40
2022-11-06T08:13:45.610Z,999.36
2022-11-06T08:14:45.681Z,999.35
2022-11-06T08:15:46.294Z,999.09
2022-11-06T08:16:45.597Z,999.43
2022-11-06T08:17:45.633Z,999.10
2022-11-06T08:18:45.585Z,999.24
2022-11-06T08:19:45.848Z,999.27
2022-11-06T08:20:45.560Z,999.18
2022-11-06T08:21:45.561Z,999.30
2022-11-06T08:22:45.547Z,999.15
2022-11-06T08:23:45.622Z,999.17
2022-11-06T08:24:45.533Z,999.21
2022-11-06T08:25:45.563Z,999.24
2022-11-06T08:26:45.524Z,999.20
2022-11-06T08:27:45.508Z,999.10
2022-11-06T08:28:45.527Z,999.19
2022-11-06T08:29:45.532Z,999.18
2022-11-06T08:30:45.524Z,999.23
2022-11-06T08:31:45.552Z,999.15
2022-11-06T08:32:45.508Z,999.11
2022-11-06T08:33:45.475Z,999.18
2022-11-06T08:34:45.496Z,999.18
2022-11-06T08:35:45.468Z,999.12
2022-11-06T08:36:49.288Z,999.08
2022-11-06T08:37:46.463Z,999.11
2022-11-06T08:38:45.472Z,999.06
2022-11-06T08:39:45.451Z,999.11
2022-11-06T08:40:50.748Z,999.14
2022-11-06T08:41:47.460Z,999.11
2022-11-06T08:42:45.449Z,999.11
2022-11-06T08:43:45.425Z,999.14
2022-11-06T08:44:45.433Z,998.84
2022-11-06T08:45:45.418Z,999.08
2022-11-06T08:46:50.782Z,999.08
2022-11-06T08:47:47.440Z,998.84
2022-11-06T08:48:45.400Z,999.10
2022-11-06T08:49:45.407Z,999.08
2022-11-06T08:50:45.409Z,998.97
2022-11-06T08:51:45.456Z,999.06
2022-11-06T08:52:45.383Z,999.01
2022-11-06T08:53:45.426Z,998.90
2022-11-06T08:54:45.384Z,998.95
2022-11-06T08:55:45.365Z,998.96
2022-11-06T08:56:45.363Z,998.74
2022-11-06T08:57:45.353Z,998.85
2022-11-06T08:58:45.360Z,998.90
2022-11-06T08:59:45.340Z,998.92
2022-11-06T09:00:45.363Z,998.97
2022-11-06T09:01:45.512Z,998.82
2022-11-06T09:02:45.341Z,998.85
2022-11-06T09:03:45.311Z,998.86
2022-11-06T09:04:45.331Z,998.78
2022-11-06T09:05:45.288Z,998.84
2022-11-06T09:06:45.286Z,998.84
2022-11-06T09:07:45.288Z,998.79
2022-11-06T09:08:45.305Z,998.83
2022-11-06T09:09:45.277Z,998.90
2022-11-06T09:10:45.262Z,998.90
2022-11-06T09:11:45.271Z,998.86
2022-11-06T09:12:45.263Z,998.84
2022-11-06T09:13:45.245Z,998.95
2022-11-06T09:14:45.258Z,998.98
2022-11-06T09:15:45.250Z,998.92
2022-11-06T09:16:45.236Z,998.86
2022-11-06T09:17:45.253Z,998.93
2022-11-06T09:18:45.253Z,998.96
2022-11-06T09:19:45.195Z,998.98
2022-11-06T09:20:45.196Z,998.88
2022-11-06T09:21:48.004Z,998.93
2022-11-06T09:22:46.221Z,998.97
2022-11-06T09:23:45.172Z,998.88
2022-11-06T09:25:02.694Z,998.78
2022-11-06T09:25:47.171Z,998.94
2022-11-06T09:26:45.158Z,998.86
2022-11-06T09:27:45.157Z,998.90
2022-11-06T09:28:45.161Z,998.85
2022-11-06T09:29:45.147Z,998.75
2022-11-06T09:30:45.135Z,998.78
2022-11-06T09:31:45.162Z,998.80
2022-11-06T09:32:45.126Z,998.80
2022-11-06T09:33:45.129Z,998.76
2022-11-06T09:34:45.114Z,998.58
2022-11-06T09:35:45.125Z,998.67
2022-11-06T09:36:45.124Z,998.71
2022-11-06T09:37:45.128Z,998.68
2022-11-06T09:38:45.215Z,998.64
2022-11-06T09:39:45.109Z,998.55
2022-11-06T09:40:45.092Z,998.53
2022-11-06T09:41:45.072Z,998.56
2022-11-06T09:42:45.064Z,998.47
2022-11-06T09:44:47.056Z,998.32
2022-11-06T09:45:45.060Z,998.48
2022-11-06T09:46:45.056Z,998.43
2022-11-06T09:47:45.029Z,998.44
2022-11-06T09:48:45.038Z,998.40
2022-11-06T09:49:45.038Z,998.30
2022-11-06T09:50:45.983Z,998.28
2022-11-06T09:51:45.034Z,998.31
2022-11-06T09:52:45.066Z,998.35
2022-11-06T09:53:45.069Z,998.21
2022-11-06T09:54:45.121Z,998.31
2022-11-06T09:55:45.203Z,998.22
2022-11-06T09:56:45.030Z,998.27
2022-11-06T09:57:44.991Z,998.07
2022-11-06T09:58:44.980Z,998.22
2022-11-06T09:59:45.020Z,998.32
2022-11-06T10:00:44.982Z,998.24
2022-11-06T10:01:45.126Z,998.22
2022-11-06T10:02:44.996Z,998.23
2022-11-06T10:03:44.934Z,998.18
2022-11-06T10:04:44.962Z,998.28
2022-11-06T10:05:44.943Z,998.25
2022-11-06T10:06:44.925Z,998.26
2022-11-06T10:07:44.937Z,998.24
2022-11-06T10:08:44.921Z,998.24
2022-11-06T10:09:44.960Z,998.18
2022-11-06T10:10:44.891Z,998.23
2022-11-06T10:11:44.929Z,998.21
2022-11-06T10:12:44.890Z,998.25
2022-11-06T10:13:44.920Z,998.20
2022-11-06T10:14:44.976Z,998.24
2022-11-06T10:15:45.019Z,998.30
2022-11-06T10:16:44.891Z,998.17
2022-11-06T10:17:44.883Z,998.17
2022-11-06T10:18:44.892Z,998.23
2022-11-06T10:19:44.959Z,998.28
2022-11-06T10:20:44.943Z,998.15
2022-11-06T10:21:44.844Z,998.21
2022-11-06T10:22:44.990Z,997.99
2022-11-06T10:23:44.831Z,998.12
2022-11-06T10:24:44.810Z,998.04
2022-11-06T10:25:44.831Z,998.13
2022-11-06T10:26:44.783Z,998.09
2022-11-06T10:27:44.778Z,998.08
2022-11-06T10:28:44.815Z,998.04
2022-11-06T10:29:44.859Z,998.06
2022-11-06T10:30:44.776Z,998.09
2022-11-06T10:31:44.784Z,998.04
2022-11-06T10:32:44.813Z,997.97
2022-11-06T10:33:45.347Z,998.00
2022-11-06T10:34:44.787Z,997.95
2022-11-06T10:35:44.773Z,997.98
2022-11-06T10:36:48.818Z,997.97
2022-11-06T10:37:46.771Z,997.85
2022-11-06T10:38:44.742Z,997.89
2022-11-06T10:39:44.801Z,997.75
2022-11-06T10:40:44.766Z,997.80
2022-11-06T10:41:44.717Z,997.76
2022-11-06T10:42:44.744Z,997.79
2022-11-06T10:43:44.712Z,997.79
2022-11-06T10:44:44.733Z,997.72
2022-11-06T10:45:45.386Z,997.63
2022-11-06T10:46:44.730Z,997.67
2022-11-06T10:47:44.719Z,997.68
2022-11-06T10:48:44.676Z,997.67
2022-11-06T10:49:45.374Z,997.56
2022-11-06T10:50:44.712Z,997.60
2022-11-06T10:51:44.688Z,997.59
2022-11-06T10:52:44.663Z,997.64
2022-11-06T10:53:45.832Z,997.54
2022-11-06T10:54:44.677Z,997.51
2022-11-06T10:55:44.696Z,997.48
2022-11-06T10:56:44.882Z,997.50
2022-11-06T10:57:45.359Z,997.50
2022-11-06T10:58:44.755Z,997.42
2022-11-06T10:59:44.633Z,997.47
2022-11-06T11:00:44.698Z,997.49
2022-11-06T11:01:44.807Z,997.51
2022-11-06T11:02:44.668Z,997.40
2022-11-06T11:03:44.626Z,997.43
2022-11-06T11:04:44.633Z,997.37
2022-11-06T11:05:44.638Z,997.37
2022-11-06T11:06:44.611Z,997.38
2022-11-06T11:07:45.039Z,997.41
2022-11-06T11:08:44.628Z,997.34
2022-11-06T11:09:44.625Z,997.32
2022-11-06T11:10:56.077Z,997.27
2022-11-06T11:11:46.591Z,997.25
2022-11-06T11:12:44.655Z,997.10
2022-11-06T11:13:44.754Z,997.11
2022-11-06T11:14:45.523Z,997.10
2022-11-06T11:15:46.305Z,997.09
2022-11-06T11:16:44.653Z,997.06
2022-11-06T11:17:44.664Z,997.10
2022-11-06T11:18:44.690Z,997.18
2022-11-06T11:19:44.663Z,997.18
2022-11-06T11:20:44.628Z,997.16
2022-11-06T11:21:44.778Z,997.12
2022-11-06T11:22:44.694Z,997.12
2022-11-06T11:23:44.607Z,997.04
2022-11-06T11:24:44.547Z,996.94
2022-11-06T11:25:44.543Z,996.93
2022-11-06T11:26:44.601Z,996.85
2022-11-06T11:27:44.514Z,996.93
2022-11-06T11:28:44.548Z,996.89
2022-11-06T11:29:44.520Z,996.86
2022-11-06T11:30:44.521Z,996.83
2022-11-06T11:31:44.513Z,996.83
2022-11-06T11:32:44.494Z,996.83
2022-11-06T11:33:44.487Z,996.77
2022-11-06T11:34:49.203Z,996.76
2022-11-06T11:35:46.516Z,996.85
2022-11-06T11:36:44.536Z,996.85
2022-11-06T11:37:44.568Z,996.58
2022-11-06T11:38:44.453Z,996.68
2022-11-06T11:39:44.448Z,996.84
2022-11-06T11:40:44.486Z,996.75
2022-11-06T11:41:44.480Z,996.68
2022-11-06T11:42:44.507Z,996.72
2022-11-06T11:43:44.428Z,996.57
2022-11-06T11:44:44.442Z,996.58
2022-11-06T11:45:44.563Z,996.55
2022-11-06T11:46:44.421Z,996.52
2022-11-06T11:47:44.417Z,996.53
2022-11-06T11:48:44.424Z,996.41
2022-11-06T11:49:44.628Z,996.38
2022-11-06T11:50:44.415Z,996.38
2022-11-06T11:51:44.401Z,996.36
2022-11-06T11:54:05.350Z,996.32
2022-11-06T11:54:44.384Z,996.28
2022-11-06T11:55:44.453Z,996.26
2022-11-06T11:57:03.744Z,996.25
2022-11-06T11:57:46.417Z,996.28
2022-11-06T11:58:44.376Z,996.23
2022-11-06T11:59:44.461Z,996.23
2022-11-06T12:00:44.506Z,996.16
2022-11-06T12:01:44.491Z,996.12
2022-11-06T12:02:44.449Z,996.09
2022-11-06T12:03:44.650Z,996.04
2022-11-06T12:04:44.391Z,996.11
2022-11-06T12:05:44.334Z,996.01
2022-11-06T12:06:44.307Z,996.00
2022-11-06T12:07:46.424Z,995.94
2022-11-06T12:08:45.307Z,995.92
2022-11-06T12:09:44.304Z,995.93
2022-11-06T12:10:44.315Z,995.82
2022-11-06T12:11:44.300Z,995.81
2022-11-06T12:12:44.873Z,995.77
2022-11-06T12:13:44.276Z,995.72
2022-11-06T12:14:44.861Z,995.56
2022-11-06T12:15:44.347Z,995.59
2022-11-06T12:16:44.281Z,995.56
2022-11-06T12:17:44.378Z,995.39
2022-11-06T12:18:44.274Z,995.53
2022-11-06T12:19:44.264Z,995.52
2022-11-06T12:20:44.249Z,995.17
2022-11-06T12:21:44.328Z,995.42
2022-11-06T12:22:44.272Z,995.40